createdAt,value
2023-04-29T00:00:14.322Z,99809.50
2023-04-29T00:01:16.987Z,99816.97
2023-04-29T00:02:19.380Z,99816.13
2023-04-29T00:03:22.178Z,99818.06
2023-04-29T00:04:27.769Z,99813.38
2023-04-29T00:05:30.315Z,99807.28
2023-04-29T00:06:32.663Z,99811.69
2023-04-29T00:07:38.081Z,99805.34
2023-04-29T00:08:40.738Z,99808.41
2023-04-29T00:09:43.078Z,99818.34
2023-04-29T00:10:45.312Z,99816.69
2023-04-29T00:11:48.106Z,99805.06
2023-04-29T00:12:51.818Z,99807.84
2023-04-29T00:13:54.105Z,99800.69
2023-04-29T00:14:56.486Z,99806.22
2023-04-29T00:19:03.987Z,99795.69
2023-04-29T00:20:07.822Z,99799.84
2023-04-29T00:21:10.100Z,99795.41
2023-04-29T00:22:12.420Z,99796.25
2023-04-29T00:23:14.690Z,99798.16
2023-04-29T00:24:16.940Z,99796.53
2023-04-29T00:25:19.247Z,99795.69
2023-04-29T00:26:21.604Z,99789.34
2023-04-29T00:27:24.561Z,99795.97
2023-04-29T00:28:28.196Z,99792.38
2023-04-29T00:29:30.541Z,99793.22
2023-04-29T00:30:34.715Z,99795.16
2023-04-29T00:31:37.766Z,99795.16
2023-04-29T00:32:40.377Z,99786.00
2023-04-29T00:33:42.847Z,99777.19
2023-04-29T00:34:45.365Z,99789.06
2023-04-29T00:35:47.729Z,99786.28
2023-04-29T00:36:50.803Z,99786.28
2023-04-29T00:37:54.232Z,99786.28
2023-04-29T00:38:56.759Z,99782.72
2023-04-29T00:39:59.292Z,99780.78
2023-04-29T00:41:01.693Z,99790.72
2023-04-29T00:42:04.308Z,99771.66
2023-04-29T00:43:06.604Z,99782.97
2023-04-29T00:44:10.074Z,99774.69
2023-04-29T00:45:12.890Z,99777.44
2023-04-29T00:46:15.245Z,99774.69
2023-04-29T00:47:17.633Z,99779.97
2023-04-29T00:48:20.093Z,99773.88
2023-04-29T00:49:22.375Z,99777.44
2023-04-29T00:50:25.053Z,99779.38
2023-04-29T00:51:27.459Z,99774.69
2023-04-29T00:52:31.792Z,99773.03
2023-04-29T00:53:34.566Z,99778.56
2023-04-29T00:54:38.127Z,99775.81
2023-04-29T00:55:42.401Z,99781.34
2023-04-29T00:56:47.316Z,99779.69
2023-04-29T00:57:52.650Z,99776.63
2023-04-29T00:58:55.211Z,99781.06
2023-04-29T00:59:58.636Z,99770.28
2023-04-29T01:01:04.277Z,99779.38
2023-04-29T01:02:06.834Z,99777.44
2023-04-29T01:03:09.695Z,99782.97
2023-04-29T01:04:13.028Z,99778.56
2023-04-29T01:05:15.620Z,99779.38
2023-04-29T01:06:24.439Z,99782.97
2023-04-29T01:07:26.729Z,99778.56
2023-04-29T01:08:52.664Z,99774.69
2023-04-29T01:10:10.950Z,99776.34
2023-04-29T01:11:15.163Z,99770.28
2023-04-29T01:12:32.362Z,99776.63
2023-04-29T01:13:42.950Z,99764.75
2023-04-29T01:14:54.240Z,99768.63
2023-04-29T01:16:04.198Z,99771.91
2023-04-29T01:17:11.388Z,99778.56
2023-04-29T01:18:30.472Z,99781.34
2023-04-29T01:19:40.502Z,99778.56
2023-04-29T01:20:45.007Z,99776.91
2023-04-29T01:21:51.911Z,99786.31
2023-04-29T01:22:55.675Z,99787.41
2023-04-29T01:23:58.451Z,99789.06
2023-04-29T01:25:04.929Z,99788.25
2023-04-29T01:26:10.276Z,99785.75
2023-04-29T01:27:41.302Z,99783.81
2023-04-29T01:29:13.287Z,99786.59
2023-04-29T01:30:57.292Z,99788.50
2023-04-29T01:32:09.233Z,99797.66
2023-04-29T01:33:29.788Z,99797.94
2023-04-29T01:34:55.459Z,99797.94
2023-04-29T01:36:13.774Z,99793.50
2023-04-29T01:38:07.371Z,99796.25
2023-04-29T01:39:16.958Z,99802.88
2023-04-29T01:40:33.543Z,99801.78
2023-04-29T01:41:59.250Z,99806.47
2023-04-29T01:43:08.384Z,99805.66
2023-04-29T01:44:17.178Z,99810.38
2023-04-29T01:45:21.862Z,99808.41
2023-04-29T01:46:24.509Z,99804.28
2023-04-29T01:47:31.292Z,99809.78
2023-04-29T01:48:33.614Z,99807.88
2023-04-29T01:49:37.158Z,99807.03
2023-04-29T01:50:39.670Z,99800.69
2023-04-29T01:51:49.424Z,99803.47
2023-04-29T01:52:51.804Z,99803.19
2023-04-29T01:53:54.375Z,99802.34
2023-04-29T01:54:57.636Z,99800.41
2023-04-29T01:56:02.905Z,99806.22
2023-04-29T01:57:17.908Z,99805.94
2023-04-29T01:58:34.746Z,99813.41
2023-04-29T02:00:07.303Z,99799.59
2023-04-29T02:01:15.580Z,99812.28
2023-04-29T02:02:21.557Z,99810.38
2023-04-29T02:03:32.394Z,99804.84
2023-04-29T02:04:37.583Z,99815.03
2023-04-29T02:05:40.372Z,99815.03
2023-04-29T02:06:43.107Z,99820.56
2023-04-29T02:07:45.977Z,99808.69
2023-04-29T02:08:49.246Z,99813.13
2023-04-29T02:09:52.752Z,99811.47
2023-04-29T02:10:56.686Z,99808.69
2023-04-29T02:12:11.165Z,99804.00
2023-04-29T02:13:13.823Z,99799.31
2023-04-29T02:14:17.061Z,99806.75
2023-04-29T02:15:19.904Z,99800.13
2023-04-29T02:16:22.270Z,99800.41
2023-04-29T02:17:42.483Z,99804.84
2023-04-29T02:18:45.851Z,99806.75
2023-04-29T02:19:48.165Z,99807.59
2023-04-29T02:20:51.938Z,99801.22
2023-04-29T02:21:54.165Z,99804.00
2023-04-29T02:22:56.444Z,99794.88
2023-04-29T02:23:58.696Z,99790.16
2023-04-29T02:25:01.203Z,99789.06
2023-04-29T02:26:07.317Z,99791.56
2023-04-29T02:27:10.465Z,99810.06
2023-04-29T02:28:12.824Z,99798.19
2023-04-29T02:29:16.410Z,99798.19
2023-04-29T02:30:19.902Z,99802.59
2023-04-29T02:31:22.261Z,99797.06
2023-04-29T02:32:24.656Z,99800.13
2023-04-29T02:33:26.975Z,99801.50
2023-04-29T02:34:29.442Z,99803.44
2023-04-29T02:35:32.027Z,99803.44
2023-04-29T02:36:34.334Z,99798.75
2023-04-29T02:37:36.774Z,99794.31
2023-04-29T02:38:39.023Z,99795.97
2023-04-29T02:39:42.709Z,99789.63
2023-04-29T02:40:46.162Z,99797.66
2023-04-29T02:41:49.205Z,99797.66
2023-04-29T02:42:51.551Z,99797.34
2023-04-29T02:43:53.817Z,99790.16
2023-04-29T02:44:56.347Z,99790.72
2023-04-29T02:46:01.098Z,99790.72
2023-04-29T02:47:04.056Z,99794.31
2023-04-29T02:48:07.034Z,99787.69
2023-04-29T02:49:10.088Z,99793.22
2023-04-29T02:50:12.568Z,99791.25
2023-04-29T02:51:14.887Z,99788.50
2023-04-29T02:52:20.042Z,99792.13
2023-04-29T02:53:23.563Z,99791.00
2023-04-29T02:54:26.004Z,99791.00
2023-04-29T02:55:28.304Z,99786.28
2023-04-29T02:56:34.455Z,99787.97
2023-04-29T02:57:36.737Z,99791.53
2023-04-29T02:58:39.704Z,99787.69
2023-04-29T02:59:42.297Z,99792.09
2023-04-29T03:00:44.598Z,99787.41
2023-04-29T03:01:48.026Z,99785.47
2023-04-29T03:02:50.709Z,99793.78
2023-04-29T03:03:54.261Z,99790.72
2023-04-29T03:04:56.706Z,99794.31
2023-04-29T03:05:58.972Z,99788.78
2023-04-29T03:07:01.474Z,99788.78
2023-04-29T03:08:04.956Z,99783.81
2023-04-29T03:09:08.061Z,99788.50
2023-04-29T03:10:10.462Z,99787.66
2023-04-29T03:11:13.503Z,99786.28
2023-04-29T03:12:16.978Z,99778.28
2023-04-29T03:13:21.396Z,99780.19
2023-04-29T03:14:23.792Z,99778.00
2023-04-29T03:15:26.435Z,99778.56
2023-04-29T03:16:29.433Z,99777.72
2023-04-29T03:17:32.137Z,99775.78
2023-04-29T03:18:34.457Z,99783.81
2023-04-29T03:19:36.726Z,99780.75
2023-04-29T03:20:38.970Z,99784.34
2023-04-29T03:21:41.214Z,99781.56
2023-04-29T03:22:43.518Z,99780.47
2023-04-29T03:23:46.121Z,99777.69
2023-04-29T03:24:55.774Z,99779.66
2023-04-29T03:25:58.130Z,99778.81
2023-04-29T03:27:01.448Z,99784.91
2023-04-29T03:28:04.453Z,99777.69
2023-04-29T03:29:07.553Z,99780.19
2023-04-29T03:30:10.344Z,99782.94
2023-04-29T03:31:21.316Z,99777.41
2023-04-29T03:32:24.332Z,99774.66
2023-04-29T03:33:26.854Z,99781.03
2023-04-29T03:34:29.783Z,99776.31
2023-04-29T03:35:46.069Z,99783.50
2023-04-29T03:37:01.490Z,99777.13
2023-04-29T03:38:04.192Z,99783.22
2023-04-29T03:39:08.768Z,99775.22
2023-04-29T03:40:12.544Z,99779.63
2023-04-29T03:41:16.004Z,99784.88
2023-04-29T03:42:18.283Z,99776.59
2023-04-29T03:43:20.934Z,99772.16
2023-04-29T03:44:23.466Z,99780.16
2023-04-29T03:45:25.787Z,99773.81
2023-04-29T03:46:28.138Z,99774.34
2023-04-29T03:47:30.416Z,99770.78
2023-04-29T03:48:33.143Z,99771.59
2023-04-29T03:49:36.034Z,99773.53
2023-04-29T03:50:38.363Z,99775.19
2023-04-29T03:51:40.688Z,99774.09
2023-04-29T03:52:50.707Z,99778.50
2023-04-29T03:53:57.054Z,99767.44
2023-04-29T03:55:00.329Z,99780.16
2023-04-29T03:56:03.488Z,99773.53
2023-04-29T03:57:06.159Z,99774.63
2023-04-29T03:58:09.198Z,99774.38
2023-04-29T03:59:11.515Z,99777.13
2023-04-29T04:00:14.772Z,99772.44
2023-04-29T04:01:21.111Z,99781.56
2023-04-29T04:02:23.773Z,99778.50
2023-04-29T04:03:27.991Z,99776.59
2023-04-29T04:04:32.501Z,99774.94
2023-04-29T04:05:34.992Z,99773.84
2023-04-29T04:06:44.341Z,99776.59
2023-04-29T04:07:48.256Z,99782.66
2023-04-29T04:09:21.240Z,99779.88
2023-04-29T04:10:23.621Z,99777.13
2023-04-29T04:11:25.981Z,99777.97
2023-04-29T04:12:33.626Z,99778.78
2023-04-29T04:13:37.079Z,99778.78
2023-04-29T04:14:40.113Z,99776.84
2023-04-29T04:15:42.722Z,99773.81
2023-04-29T04:16:45.176Z,99776.59
2023-04-29T04:17:47.531Z,99784.03
2023-04-29T04:18:50.040Z,99784.88
2023-04-29T04:19:52.676Z,99781.84
2023-04-29T04:20:55.270Z,99780.97
2023-04-29T04:21:59.851Z,99784.59
2023-04-29T04:23:02.426Z,99785.41
2023-04-29T04:24:06.104Z,99779.59
2023-04-29T04:25:08.952Z,99777.69
2023-04-29T04:26:13.755Z,99776.81
2023-04-29T04:27:28.054Z,99784.88
2023-04-29T04:28:33.232Z,99787.63
2023-04-29T04:29:41.150Z,99778.19
2023-04-29T04:30:49.872Z,99785.41
2023-04-29T04:31:52.273Z,99785.97
2023-04-29T04:32:55.690Z,99786.25
2023-04-29T04:33:59.939Z,99788.72
2023-04-29T04:35:03.415Z,99781.53
2023-04-29T04:36:06.140Z,99785.09
2023-04-29T04:37:08.455Z,99787.88
2023-04-29T04:38:11.685Z,99793.16
2023-04-29T04:39:14.237Z,99791.19
2023-04-29T04:40:17.224Z,99788.44
2023-04-29T04:41:39.776Z,99798.41
2023-04-29T04:42:42.241Z,99797.28
2023-04-29T04:43:48.935Z,99796.44
2023-04-29T04:44:58.549Z,99797.28
2023-04-29T04:46:15.205Z,99789.00
2023-04-29T04:47:27.696Z,99789.00
2023-04-29T04:48:37.668Z,99791.47
2023-04-29T04:49:40.256Z,99794.25
2023-04-29T04:50:43.524Z,99797.00
2023-04-29T04:51:45.983Z,99789.53
2023-04-29T04:52:48.734Z,99791.19
2023-04-29T04:54:04.425Z,99795.06
2023-04-29T04:55:09.347Z,99801.16
2023-04-29T04:56:12.443Z,99794.78
2023-04-29T04:57:14.955Z,99798.38
2023-04-29T04:58:17.566Z,99805.84
2023-04-29T04:59:19.908Z,99801.97
2023-04-29T05:00:22.272Z,99802.53
2023-04-29T05:01:24.830Z,99805.28
2023-04-29T05:02:27.380Z,99800.56
2023-04-29T05:03:30.134Z,99795.84
2023-04-29T05:04:32.685Z,99803.91
2023-04-29T05:05:35.035Z,99794.47
2023-04-29T05:06:37.912Z,99798.91
2023-04-29T05:07:40.406Z,99805.53
2023-04-29T05:08:43.959Z,99815.22
2023-04-29T05:09:46.294Z,99806.09
2023-04-29T05:10:48.662Z,99798.59
2023-04-29T05:11:51.372Z,99797.50
2023-04-29T05:12:54.277Z,99808.56
2023-04-29T05:13:56.597Z,99796.41
2023-04-29T05:14:58.937Z,99805.25
2023-04-29T05:16:06.233Z,99810.78
2023-04-29T05:17:10.307Z,99808.03
2023-04-29T05:18:13.104Z,99817.97
2023-04-29T05:19:19.630Z,99807.75
2023-04-29T05:20:21.998Z,99806.63
2023-04-29T05:21:24.305Z,99806.34
2023-04-29T05:22:26.717Z,99808.81
2023-04-29T05:23:29.301Z,99811.59
2023-04-29T05:24:33.087Z,99809.38
2023-04-29T05:25:35.527Z,99819.31
2023-04-29T05:26:38.546Z,99817.09
2023-04-29T05:27:42.133Z,99820.69
2023-04-29T05:28:48.377Z,99809.38
2023-04-29T05:29:51.203Z,99817.38
2023-04-29T05:30:54.253Z,99822.63
2023-04-29T05:31:56.603Z,99824.00
2023-04-29T05:33:00.880Z,99816.22
2023-04-29T05:34:03.534Z,99825.09
2023-04-29T05:35:07.554Z,99829.50
2023-04-29T05:36:10.947Z,99835.31
2023-04-29T05:37:13.714Z,99832.56
2023-04-29T05:38:33.024Z,99826.44
2023-04-29T05:39:40.058Z,99828.09
2023-04-29T05:40:50.289Z,99818.69
2023-04-29T05:42:15.976Z,99832.47
2023-04-29T05:43:22.522Z,99831.38
2023-04-29T05:44:24.822Z,99824.72
2023-04-29T05:45:27.084Z,99825.28
2023-04-29T05:46:29.397Z,99825.81
2023-04-29T05:47:31.863Z,99826.38
2023-04-29T05:48:34.146Z,99829.41
2023-04-29T05:49:36.418Z,99839.91
2023-04-29T05:50:38.702Z,99832.97
2023-04-29T05:51:41.048Z,99837.09
2023-04-29T05:52:43.430Z,99831.81
2023-04-29T05:53:45.826Z,99835.97
2023-04-29T05:54:48.340Z,99838.16
2023-04-29T05:55:51.577Z,99828.44
2023-04-29T05:56:56.310Z,99837.81
2023-04-29T05:58:00.225Z,99836.44
2023-04-29T05:59:02.501Z,99834.75
2023-04-29T06:00:07.110Z,99840.56
2023-04-29T06:01:17.579Z,99839.97
2023-04-29T06:02:21.480Z,99846.63
2023-04-29T06:03:24.344Z,99836.06
2023-04-29T06:04:44.390Z,99845.19
2023-04-29T06:06:02.387Z,99841.84
2023-04-29T06:07:15.012Z,99844.88
2023-04-29T06:08:25.845Z,99841.22
2023-04-29T06:09:38.616Z,99843.41
2023-04-29T06:10:41.426Z,99845.31
2023-04-29T06:11:45.384Z,99843.91
2023-04-29T06:12:50.980Z,99850.81
2023-04-29T06:13:53.294Z,99839.16
2023-04-29T06:14:55.786Z,99847.19
2023-04-29T06:15:58.143Z,99847.16
2023-04-29T06:17:02.312Z,99845.75
2023-04-29T06:18:06.012Z,99843.47
2023-04-29T06:19:08.475Z,99853.16
2023-04-29T06:20:11.408Z,99849.53
2023-04-29T06:21:15.202Z,99856.16
2023-04-29T06:22:18.644Z,99847.22
2023-04-29T06:23:25.188Z,99856.91
2023-04-29T06:24:27.872Z,99856.06
2023-04-29T06:25:30.699Z,99855.47
2023-04-29T06:26:33.702Z,99862.94
2023-04-29T06:27:35.986Z,99867.56
2023-04-29T06:28:38.528Z,99858.69
2023-04-29T06:29:42.062Z,99853.66
2023-04-29T06:30:46.010Z,99860.00
2023-04-29T06:31:49.235Z,99861.34
2023-04-29T06:32:52.042Z,99869.13
2023-04-29T06:33:55.234Z,99869.38
2023-04-29T06:34:57.474Z,99869.88
2023-04-29T06:36:07.173Z,99870.13
2023-04-29T06:37:38.251Z,99858.44
2023-04-29T06:39:05.197Z,99870.88
2023-04-29T06:40:29.033Z,99862.81
2023-04-29T06:41:59.051Z,99868.91
2023-04-29T06:43:20.170Z,99866.94
2023-04-29T06:44:44.031Z,99880.25
2023-04-29T06:46:13.361Z,99869.97
2023-04-29T06:47:23.734Z,99869.97
2023-04-29T06:48:57.825Z,99877.19
2023-04-29T06:50:00.596Z,99871.63
2023-04-29T06:51:02.886Z,99873.28
2023-04-29T06:52:05.177Z,99873.28
2023-04-29T06:53:07.583Z,99867.72
2023-04-29T06:54:09.840Z,99870.19
2023-04-29T06:55:12.694Z,99868.53
2023-04-29T06:56:18.359Z,99871.31
2023-04-29T06:57:23.073Z,99876.56
2023-04-29T06:58:25.367Z,99873.78
2023-04-29T06:59:27.688Z,99875.75
2023-04-29T07:00:30.238Z,99878.22
2023-04-29T07:01:32.619Z,99877.41
2023-04-29T07:02:36.491Z,99877.41
2023-04-29T07:03:38.842Z,99872.69
2023-04-29T07:04:42.607Z,99884.59
2023-04-29T07:05:46.520Z,99882.69
2023-04-29T07:06:48.898Z,99881.53
2023-04-29T07:07:51.233Z,99879.59
2023-04-29T07:08:55.503Z,99875.97
2023-04-29T07:09:59.277Z,99884.31
2023-04-29T07:11:02.431Z,99891.50
2023-04-29T07:12:05.544Z,99887.09
2023-04-29T07:13:07.811Z,99889.84
2023-04-29T07:14:10.140Z,99893.47
2023-04-29T07:15:12.450Z,99885.97
2023-04-29T07:16:19.177Z,99891.81
2023-04-29T07:17:21.546Z,99891.81
2023-04-29T07:18:23.940Z,99886.56
2023-04-29T07:19:26.570Z,99893.78
2023-04-29T07:20:29.321Z,99886.56
2023-04-29T07:21:31.646Z,99887.09
2023-04-29T07:22:34.118Z,99892.63
2023-04-29T07:23:36.422Z,99880.72
2023-04-29T07:24:38.743Z,99885.97
2023-04-29T07:25:41.599Z,99887.63
2023-04-29T07:26:45.332Z,99889.28
2023-04-29T07:27:50.625Z,99899.28
2023-04-29T07:28:53.427Z,99890.94
2023-04-29T07:29:55.682Z,99897.31
2023-04-29T07:30:59.237Z,99893.41
2023-04-29T07:32:01.673Z,99899.50
2023-04-29T07:33:04.730Z,99895.91
2023-04-29T07:34:07.481Z,99894.78
2023-04-29T07:35:09.878Z,99890.88
2023-04-29T07:36:12.294Z,99898.06
2023-04-29T07:37:14.527Z,99894.19
2023-04-29T07:38:17.328Z,99893.88
2023-04-29T07:39:19.678Z,99903.88
2023-04-29T07:40:24.755Z,99902.75
2023-04-29T07:41:28.908Z,99911.09
2023-04-29T07:42:31.164Z,99903.56
2023-04-29T07:43:34.733Z,99910.47
2023-04-29T07:44:37.195Z,99911.31
2023-04-29T07:45:40.132Z,99906.59
2023-04-29T07:46:42.476Z,99913.00
2023-04-29T07:47:45.770Z,99918.25
2023-04-29T07:48:48.165Z,99911.56
2023-04-29T07:49:50.499Z,99919.91
2023-04-29T07:50:52.852Z,99916.28
2023-04-29T07:51:55.512Z,99924.63
2023-04-29T07:53:00.380Z,99921.84
2023-04-29T07:54:02.962Z,99919.91
2023-04-29T07:55:05.867Z,99925.47
2023-04-29T07:56:08.828Z,99928.25
2023-04-29T07:57:12.237Z,99925.47
2023-04-29T07:58:14.693Z,99931.00
2023-04-29T07:59:17.137Z,99927.38
2023-04-29T08:00:19.714Z,99930.16
2023-04-29T08:01:23.185Z,99932.94
2023-04-29T08:02:25.672Z,99931.28
2023-04-29T08:03:28.250Z,99936.84
2023-04-29T08:04:31.083Z,99934.06
2023-04-29T08:05:41.442Z,99935.72
2023-04-29T08:06:43.824Z,99938.19
2023-04-29T08:07:51.083Z,99939.88
2023-04-29T08:08:53.741Z,99941.53
2023-04-29T08:09:56.079Z,99932.88
2023-04-29T08:10:58.531Z,99939.00
2023-04-29T08:12:02.290Z,99941.97
2023-04-29T08:13:04.634Z,99941.72
2023-04-29T08:14:07.390Z,99940.56
2023-04-29T08:15:12.353Z,99946.66
2023-04-29T08:16:14.622Z,99937.72
2023-04-29T08:17:16.985Z,99936.31
2023-04-29T08:18:19.357Z,99935.19
2023-04-29T08:19:22.176Z,99932.94
2023-04-29T08:20:25.071Z,99939.84
2023-04-29T08:21:27.971Z,99945.13
2023-04-29T08:22:30.872Z,99946.78
2023-04-29T08:23:35.936Z,99949.75
2023-04-29T08:24:38.261Z,99953.38
2023-04-29T08:25:44.307Z,99941.97
2023-04-29T08:26:47.574Z,99950.00
2023-04-29T08:27:49.857Z,99949.69
2023-04-29T08:28:52.130Z,99952.47
2023-04-29T08:29:54.473Z,99955.25
2023-04-29T08:30:56.894Z,99956.09
2023-04-29T08:31:59.331Z,99957.78
2023-04-29T08:33:01.699Z,99952.22
2023-04-29T08:34:04.102Z,99962.19
2023-04-29T08:35:06.989Z,99957.78
2023-04-29T08:36:09.311Z,99968.28
2023-04-29T08:37:12.086Z,99965.81
2023-04-29T08:38:14.505Z,99964.97
2023-04-29T08:39:16.764Z,99962.19
2023-04-29T08:40:19.114Z,99963.31
2023-04-29T08:41:21.569Z,99963.31
2023-04-29T08:42:34.215Z,99965.56
2023-04-29T08:43:40.974Z,99963.91
2023-04-29T08:44:44.576Z,99974.19
2023-04-29T08:45:50.164Z,99973.66
2023-04-29T08:46:53.085Z,99977.84
2023-04-29T08:47:57.575Z,99971.50
2023-04-29T08:49:04.483Z,99972.59
2023-04-29T08:50:07.721Z,99972.91
2023-04-29T08:51:13.707Z,99982.38
2023-04-29T08:52:16.007Z,99974.31
2023-04-29T08:53:20.106Z,99978.22
2023-04-29T08:54:22.440Z,99981.00
2023-04-29T08:55:28.386Z,99976.56
2023-04-29T08:56:31.614Z,99976.88
2023-04-29T08:57:40.180Z,99979.94
2023-04-29T08:58:44.818Z,99988.59
2023-04-29T08:59:47.217Z,99981.38
2023-04-29T09:00:50.014Z,99984.13
2023-04-29T09:01:56.742Z,99993.59
2023-04-29T09:03:00.901Z,99993.91
2023-04-29T09:04:37.187Z,99990.31
2023-04-29T09:05:42.159Z,99998.09
2023-04-29T09:06:44.614Z,99996.13
2023-04-29T09:07:47.707Z,100003.66
2023-04-29T09:08:50.037Z,100002.28
2023-04-29T09:09:53.717Z,100000.94
2023-04-29T09:10:56.779Z,99999.25
2023-04-29T09:11:59.275Z,100001.53
2023-04-29T09:13:01.651Z,99999.00
2023-04-29T09:14:08.358Z,100004.06
2023-04-29T09:15:11.027Z,99996.84
2023-04-29T09:16:13.694Z,99993.53
2023-04-29T09:17:16.792Z,99996.59
2023-04-29T09:18:47.117Z,99996.88
2023-04-29T09:19:49.696Z,99998.84
2023-04-29T09:20:52.067Z,99999.97
2023-04-29T09:21:58.845Z,100009.41
2023-04-29T09:23:04.275Z,100001.38
2023-04-29T09:24:06.631Z,100001.38
2023-04-29T09:25:15.638Z,100010.84
2023-04-29T09:26:17.961Z,100008.34
2023-04-29T09:27:29.409Z,100011.94
2023-04-29T09:28:32.036Z,100006.69
2023-04-29T09:29:36.732Z,100019.47
2023-04-29T09:30:46.339Z,100013.09
2023-04-29T09:31:51.013Z,100013.34
2023-04-29T09:33:09.963Z,100016.13
2023-04-29T09:34:13.272Z,100015.63
2023-04-29T09:35:21.813Z,100021.69
2023-04-29T09:36:59.946Z,100024.75
2023-04-29T09:38:16.307Z,100023.66
2023-04-29T09:39:21.009Z,100019.22
2023-04-29T09:40:40.415Z,100020.88
2023-04-29T09:41:55.365Z,100021.97
2023-04-29T09:42:58.774Z,100020.06
2023-04-29T09:44:08.436Z,100022.84
2023-04-29T09:45:12.269Z,100023.66
2023-04-29T09:46:16.441Z,100024.47
2023-04-29T09:47:30.198Z,100024.19
2023-04-29T09:48:34.427Z,100031.38
2023-04-29T09:49:40.016Z,100029.75
2023-04-29T09:50:44.410Z,100023.91
2023-04-29T09:51:55.448Z,100029.97
2023-04-29T09:52:59.449Z,100027.19
2023-04-29T09:54:20.951Z,100035.25
2023-04-29T09:55:23.249Z,100036.06
2023-04-29T09:56:29.481Z,100034.97
2023-04-29T09:57:43.483Z,100039.09
2023-04-29T09:58:47.450Z,100038.00
2023-04-29T09:59:49.780Z,100042.13
2023-04-29T10:00:53.874Z,100037.09
2023-04-29T10:01:58.151Z,100043.19
2023-04-29T10:03:02.145Z,100037.34
2023-04-29T10:04:05.572Z,100041.19
2023-04-29T10:05:10.326Z,100040.88
2023-04-29T10:06:13.589Z,100040.59
2023-04-29T10:07:17.898Z,100039.16
2023-04-29T10:08:20.554Z,100037.22
2023-04-29T10:09:23.910Z,100044.16
2023-04-29T10:10:30.224Z,100041.38
2023-04-29T10:11:34.506Z,100043.03
2023-04-29T10:12:38.851Z,100045.53
2023-04-29T10:13:44.210Z,100042.75
2023-04-29T10:15:27.893Z,100053.25
2023-04-29T10:16:34.028Z,100047.69
2023-04-29T10:17:49.892Z,100049.06
2023-04-29T10:18:56.851Z,100053.81
2023-04-29T10:20:06.654Z,100052.66
2023-04-29T10:21:12.235Z,100051.84
2023-04-29T10:22:27.141Z,100054.91
2023-04-29T10:23:31.258Z,100062.13
2023-04-29T10:24:38.129Z,100062.41
2023-04-29T10:25:43.234Z,100061.59
2023-04-29T10:26:47.527Z,100060.78
2023-04-29T10:27:53.721Z,100059.94
2023-04-29T10:28:56.992Z,100064.38
2023-04-29T10:30:02.509Z,100068.25
2023-04-29T10:31:06.035Z,100068.81
2023-04-29T10:32:12.833Z,100069.94
2023-04-29T10:33:16.766Z,100064.91
2023-04-29T10:34:19.776Z,100071.00
2023-04-29T10:35:26.061Z,100069.06
2023-04-29T10:36:31.762Z,100069.88
2023-04-29T10:37:34.204Z,100065.13
2023-04-29T10:38:43.263Z,100071.53
2023-04-29T10:39:58.056Z,100070.13
2023-04-29T10:41:05.397Z,100067.03
2023-04-29T10:42:21.335Z,100069.28
2023-04-29T10:43:28.045Z,100070.94
2023-04-29T10:44:30.304Z,100072.31
2023-04-29T10:45:36.472Z,100075.63
2023-04-29T10:46:39.359Z,100073.66
2023-04-29T10:47:41.721Z,100079.78
2023-04-29T10:48:47.780Z,100079.78
2023-04-29T10:50:04.707Z,100081.44
2023-04-29T10:51:06.984Z,100083.63
2023-04-29T10:52:09.404Z,100080.53
2023-04-29T10:53:11.668Z,100079.16
2023-04-29T10:54:17.782Z,100083.59
2023-04-29T10:55:20.138Z,100089.66
2023-04-29T10:56:22.430Z,100089.66
2023-04-29T10:57:25.473Z,100082.97
2023-04-29T10:58:37.009Z,100079.09
2023-04-29T10:59:39.234Z,100085.47
2023-04-29T11:00:41.562Z,100084.34
2023-04-29T11:01:49.501Z,100080.75
2023-04-29T11:02:51.835Z,100082.41
2023-04-29T11:03:58.961Z,100088.78
2023-04-29T11:05:10.428Z,100086.00
2023-04-29T11:06:12.958Z,100089.91
2023-04-29T11:07:30.249Z,100086.00
2023-04-29T11:08:40.129Z,100088.25
2023-04-29T11:09:42.529Z,100095.22
2023-04-29T11:10:45.915Z,100097.19
2023-04-29T11:12:06.178Z,100104.72
2023-04-29T11:13:28.877Z,100097.50
2023-04-29T11:14:50.572Z,100095.81
2023-04-29T11:15:54.258Z,100107.75
2023-04-29T11:17:02.058Z,100104.44
2023-04-29T11:18:04.313Z,100099.47
2023-04-29T11:19:08.840Z,100103.38
2023-04-29T11:20:14.432Z,100108.63
2023-04-29T11:21:16.797Z,100113.94
2023-04-29T11:22:19.343Z,100108.69
2023-04-29T11:23:26.747Z,100107.03
2023-04-29T11:24:30.810Z,100105.66
2023-04-29T11:25:34.444Z,100112.34
2023-04-29T11:26:37.232Z,100107.06
2023-04-29T11:27:42.800Z,100106.25
2023-04-29T11:28:45.917Z,100101.28
2023-04-29T11:29:48.205Z,100102.94
2023-04-29T11:30:51.522Z,100110.44
2023-04-29T11:32:00.056Z,100117.94
2023-04-29T11:33:02.519Z,100113.22
2023-04-29T11:34:05.844Z,100108.19
2023-04-29T11:35:13.023Z,100121.56
2023-04-29T11:36:15.450Z,100114.34
2023-04-29T11:37:25.937Z,100119.91
2023-04-29T11:38:29.423Z,100120.16
2023-04-29T11:39:36.371Z,100109.56
2023-04-29T11:40:51.425Z,100110.41
2023-04-29T11:42:07.104Z,100114.00
2023-04-29T11:43:09.401Z,100115.06
2023-04-29T11:44:12.505Z,100112.81
2023-04-29T11:45:15.486Z,100119.19
2023-04-29T11:46:17.912Z,100114.50
2023-04-29T11:47:22.192Z,100123.34
2023-04-29T11:48:26.073Z,100124.19
2023-04-29T11:49:35.005Z,100120.28
2023-04-29T11:50:37.447Z,100123.91
2023-04-29T11:51:39.758Z,100133.06
2023-04-29T11:52:42.235Z,100131.38
2023-04-29T11:53:45.042Z,100128.38
2023-04-29T11:54:47.946Z,100133.94
2023-04-29T11:55:50.394Z,100126.41
2023-04-29T11:56:57.133Z,100131.16
2023-04-29T11:58:00.178Z,100129.19
2023-04-29T11:59:11.741Z,100133.34
2023-04-29T12:00:14.415Z,100137.78
2023-04-29T12:01:16.963Z,100134.16
2023-04-29T12:02:23.394Z,100141.38
2023-04-29T12:03:25.845Z,100146.94
2023-04-29T12:04:29.032Z,100148.91
2023-04-29T12:05:31.606Z,100145.56
2023-04-29T12:06:34.069Z,100147.22
2023-04-29T12:07:37.384Z,100146.41
2023-04-29T12:08:41.092Z,100153.09
2023-04-29T12:09:44.947Z,100163.63
2023-04-29T12:10:48.083Z,100160.84
2023-04-29T12:11:51.591Z,100163.38
2023-04-29T12:12:54.102Z,100168.69
2023-04-29T12:13:57.629Z,100164.53
2023-04-29T12:15:00.047Z,100165.09
2023-04-29T12:16:02.669Z,100171.25
2023-04-29T12:17:06.109Z,100176.00
2023-04-29T12:18:09.261Z,100170.72
2023-04-29T12:19:12.288Z,100175.75
2023-04-29T12:20:15.294Z,100171.03
2023-04-29T12:21:17.875Z,100179.44
2023-04-29T12:22:20.334Z,100177.25
2023-04-29T12:23:24.682Z,100188.09
2023-04-29T12:24:27.019Z,100191.19
2023-04-29T12:25:29.666Z,100186.22
2023-04-29T12:26:32.766Z,100181.22
2023-04-29T12:27:36.598Z,100180.16
2023-04-29T12:28:41.891Z,100191.56
2023-04-29T12:29:44.144Z,100186.84
2023-04-29T12:30:51.786Z,100187.44
2023-04-29T12:31:54.660Z,100182.47
2023-04-29T12:32:57.118Z,100179.16
2023-04-29T12:33:59.528Z,100170.25
2023-04-29T12:35:01.752Z,100185.50
2023-04-29T12:36:04.245Z,100174.69
2023-04-29T12:37:06.587Z,100182.50
2023-04-29T12:38:09.492Z,100185.56
2023-04-29T12:39:14.718Z,100189.19
2023-04-29T12:40:17.709Z,100193.88
2023-04-29T12:41:21.468Z,100192.25
2023-04-29T12:42:23.715Z,100194.19
2023-04-29T12:43:30.251Z,100196.13
2023-04-29T12:44:38.905Z,100203.63